sensor_id;sensor_type;location;lat;lon;timestamp;P1;durP1;ratioP1;P2;durP2;ratioP2
51216;SDS011;37283;49.760;8.648;2023-06-22T00:02:25;7.07;;;5.40;;
51216;SDS011;37283;49.760;8.648;2023-06-22T00:04:51;6.45;;;5.55;;
51216;SDS011;37283;49.760;8.648;2023-06-22T00:07:18;6.13;;;5.53;;
51216;SDS011;37283;49.760;8.648;2023-06-22T00:09:44;6.80;;;5.47;;
51216;SDS011;37283;49.760;8.648;2023-06-22T00:12:11;6.85;;;5.80;;
51216;SDS011;37283;49.760;8.648;2023-06-22T00:14:37;6.00;;;5.30;;
51216;SDS011;37283;49.760;8.648;2023-06-22T00:17:04;5.68;;;5.07;;
51216;SDS011;37283;49.760;8.648;2023-06-22T00:19:30;6.68;;;5.25;;
51216;SDS011;37283;49.760;8.648;2023-06-22T00:21:57;6.13;;;5.55;;
51216;SDS011;37283;49.760;8.648;2023-06-22T00:24:26;7.05;;;5.15;;
51216;SDS011;37283;49.760;8.648;2023-06-22T00:26:52;6.38;;;5.55;;
51216;SDS011;37283;49.760;8.648;2023-06-22T00:29:19;7.10;;;6.03;;
51216;SDS011;37283;49.760;8.648;2023-06-22T00:31:46;6.18;;;5.57;;
51216;SDS011;37283;49.760;8.648;2023-06-22T00:34:13;9.48;;;6.38;;
51216;SDS011;37283;49.760;8.648;2023-06-22T00:36:40;7.63;;;6.45;;
51216;SDS011;37283;49.760;8.648;2023-06-22T00:39:07;9.68;;;7.22;;
51216;SDS011;37283;49.760;8.648;2023-06-22T00:41:35;9.85;;;7.47;;
51216;SDS011;37283;49.760;8.648;2023-06-22T00:44:03;7.82;;;7.13;;
51216;SDS011;37283;49.760;8.648;2023-06-22T00:46:30;8.32;;;7.50;;
51216;SDS011;37283;49.760;8.648;2023-06-22T00:48:58;8.95;;;7.35;;
51216;SDS011;37283;49.760;8.648;2023-06-22T00:51:27;9.30;;;7.50;;
51216;SDS011;37283;49.760;8.648;2023-06-22T00:53:53;9.02;;;6.93;;
51216;SDS011;37283;49.760;8.648;2023-06-22T00:56:20;9.88;;;7.13;;
51216;SDS011;37283;49.760;8.648;2023-06-22T00:58:51;9.00;;;7.20;;
51216;SDS011;37283;49.760;8.648;2023-06-22T01:01:19;8.23;;;6.93;;
51216;SDS011;37283;49.760;8.648;2023-06-22T01:03:50;8.73;;;7.18;;
51216;SDS011;37283;49.760;8.648;2023-06-22T01:06:19;7.65;;;6.88;;
51216;SDS011;37283;49.760;8.648;2023-06-22T01:09:37;7.28;;;6.57;;
51216;SDS011;37283;49.760;8.648;2023-06-22T01:11:48;9.02;;;7.25;;
51216;SDS011;37283;49.760;8.648;2023-06-22T01:14:35;8.60;;;7.03;;
51216;SDS011;37283;49.760;8.648;2023-06-22T01:17:04;9.75;;;7.70;;
51216;SDS011;37283;49.760;8.648;2023-06-22T01:22:02;8.15;;;7.30;;
51216;SDS011;37283;49.760;8.648;2023-06-22T01:24:32;11.63;;;7.30;;
51216;SDS011;37283;49.760;8.648;2023-06-22T01:27:20;9.65;;;7.78;;
51216;SDS011;37283;49.760;8.648;2023-06-22T01:29:55;9.00;;;8.10;;
51216;SDS011;37283;49.760;8.648;2023-06-22T01:32:28;8.82;;;7.82;;
51216;SDS011;37283;49.760;8.648;2023-06-22T01:34:57;10.60;;;8.43;;
51216;SDS011;37283;49.760;8.648;2023-06-22T01:37:25;10.30;;;8.65;;
51216;SDS011;37283;49.760;8.648;2023-06-22T01:39:53;8.68;;;7.88;;
51216;SDS011;37283;49.760;8.648;2023-06-22T01:42:23;9.50;;;8.70;;
51216;SDS011;37283;49.760;8.648;2023-06-22T01:44:50;10.13;;;9.13;;
51216;SDS011;37283;49.760;8.648;2023-06-22T01:47:18;10.20;;;8.80;;
51216;SDS011;37283;49.760;8.648;2023-06-22T01:49:46;10.07;;;8.80;;
51216;SDS011;37283;49.760;8.648;2023-06-22T01:52:13;10.82;;;8.90;;
51216;SDS011;37283;49.760;8.648;2023-06-22T01:54:39;10.45;;;8.68;;
51216;SDS011;37283;49.760;8.648;2023-06-22T01:57:06;10.85;;;8.55;;
51216;SDS011;37283;49.760;8.648;2023-06-22T01:59:34;9.80;;;8.88;;
51216;SDS011;37283;49.760;8.648;2023-06-22T02:02:09;10.20;;;9.20;;
51216;SDS011;37283;49.760;8.648;2023-06-22T02:07:25;10.05;;;8.52;;
51216;SDS011;37283;49.760;8.648;2023-06-22T02:09:56;9.70;;;8.70;;
51216;SDS011;37283;49.760;8.648;2023-06-22T02:12:24;9.10;;;8.25;;
51216;SDS011;37283;49.760;8.648;2023-06-22T02:14:51;9.52;;;8.63;;
51216;SDS011;37283;49.760;8.648;2023-06-22T02:17:18;9.25;;;8.35;;
51216;SDS011;37283;49.760;8.648;2023-06-22T02:19:45;10.90;;;9.40;;
51216;SDS011;37283;49.760;8.648;2023-06-22T02:22:13;10.68;;;8.60;;
51216;SDS011;37283;49.760;8.648;2023-06-22T02:24:40;12.98;;;9.32;;
51216;SDS011;37283;49.760;8.648;2023-06-22T02:27:06;9.35;;;8.38;;
51216;SDS011;37283;49.760;8.648;2023-06-22T02:29:33;9.45;;;8.27;;
51216;SDS011;37283;49.760;8.648;2023-06-22T02:32:01;9.70;;;8.70;;
51216;SDS011;37283;49.760;8.648;2023-06-22T02:34:27;9.80;;;8.73;;
51216;SDS011;37283;49.760;8.648;2023-06-22T02:36:54;10.23;;;9.23;;
51216;SDS011;37283;49.760;8.648;2023-06-22T02:39:21;9.70;;;8.75;;
51216;SDS011;37283;49.760;8.648;2023-06-22T02:41:49;9.35;;;8.45;;
51216;SDS011;37283;49.760;8.648;2023-06-22T02:44:17;9.13;;;8.25;;
51216;SDS011;37283;49.760;8.648;2023-06-22T02:46:44;9.35;;;8.50;;
51216;SDS011;37283;49.760;8.648;2023-06-22T02:49:12;8.63;;;7.82;;
51216;SDS011;37283;49.760;8.648;2023-06-22T02:51:44;9.60;;;8.70;;
51216;SDS011;37283;49.760;8.648;2023-06-22T02:54:13;8.63;;;7.82;;
51216;SDS011;37283;49.760;8.648;2023-06-22T02:56:40;9.48;;;8.48;;
51216;SDS011;37283;49.760;8.648;2023-06-22T03:01:38;8.80;;;8.00;;
51216;SDS011;37283;49.760;8.648;2023-06-22T03:04:15;8.88;;;7.95;;
51216;SDS011;37283;49.760;8.648;2023-06-22T03:06:42;9.90;;;8.48;;
51216;SDS011;37283;49.760;8.648;2023-06-22T03:09:08;9.55;;;8.65;;
51216;SDS011;37283;49.760;8.648;2023-06-22T03:11:36;8.55;;;7.75;;
51216;SDS011;37283;49.760;8.648;2023-06-22T03:14:03;8.88;;;8.07;;
51216;SDS011;37283;49.760;8.648;2023-06-22T03:16:29;9.05;;;7.97;;
51216;SDS011;37283;49.760;8.648;2023-06-22T03:18:57;9.77;;;8.07;;
51216;SDS011;37283;49.760;8.648;2023-06-22T03:21:23;9.85;;;8.40;;
51216;SDS011;37283;49.760;8.648;2023-06-22T03:23:51;11.38;;;7.55;;
51216;SDS011;37283;49.760;8.648;2023-06-22T03:26:17;8.60;;;7.75;;
51216;SDS011;37283;49.760;8.648;2023-06-22T03:28:44;9.75;;;8.27;;
51216;SDS011;37283;49.760;8.648;2023-06-22T03:31:11;8.63;;;7.80;;
51216;SDS011;37283;49.760;8.648;2023-06-22T03:33:39;10.88;;;8.25;;
51216;SDS011;37283;49.760;8.648;2023-06-22T03:36:06;9.52;;;7.78;;
51216;SDS011;37283;49.760;8.648;2023-06-22T03:38:32;8.82;;;7.93;;
51216;SDS011;37283;49.760;8.648;2023-06-22T03:40:59;9.88;;;8.52;;
51216;SDS011;37283;49.760;8.648;2023-06-22T03:43:27;9.00;;;7.97;;
51216;SDS011;37283;49.760;8.648;2023-06-22T03:45:55;9.70;;;8.13;;
51216;SDS011;37283;49.760;8.648;2023-06-22T03:48:21;8.35;;;7.55;;
51216;SDS011;37283;49.760;8.648;2023-06-22T03:50:48;8.10;;;7.35;;
51216;SDS011;37283;49.760;8.648;2023-06-22T03:53:14;8.70;;;7.88;;
51216;SDS011;37283;49.760;8.648;2023-06-22T03:55:48;8.45;;;7.57;;
51216;SDS011;37283;49.760;8.648;2023-06-22T03:58:16;9.98;;;7.50;;
51216;SDS011;37283;49.760;8.648;2023-06-22T04:00:45;8.70;;;7.78;;
51216;SDS011;37283;49.760;8.648;2023-06-22T04:03:13;8.05;;;7.25;;
51216;SDS011;37283;49.760;8.648;2023-06-22T04:05:40;8.15;;;7.35;;
51216;SDS011;37283;49.760;8.648;2023-06-22T04:08:07;7.97;;;7.18;;
51216;SDS011;37283;49.760;8.648;2023-06-22T04:10:34;8.18;;;7.32;;
51216;SDS011;37283;49.760;8.648;2023-06-22T04:13:01;8.20;;;7.30;;
51216;SDS011;37283;49.760;8.648;2023-06-22T04:15:27;10.95;;;7.50;;
51216;SDS011;37283;49.760;8.648;2023-06-22T04:17:54;8.65;;;7.40;;
51216;SDS011;37283;49.760;8.648;2023-06-22T04:20:21;8.32;;;7.47;;
51216;SDS011;37283;49.760;8.648;2023-06-22T04:22:48;9.70;;;7.53;;
51216;SDS011;37283;49.760;8.648;2023-06-22T04:25:14;8.50;;;7.57;;
51216;SDS011;37283;49.760;8.648;2023-06-22T04:27:41;8.20;;;7.40;;
51216;SDS011;37283;49.760;8.648;2023-06-22T04:30:08;8.25;;;7.18;;
51216;SDS011;37283;49.760;8.648;2023-06-22T04:32:35;9.15;;;6.82;;
51216;SDS011;37283;49.760;8.648;2023-06-22T04:35:05;7.88;;;7.07;;
51216;SDS011;37283;49.760;8.648;2023-06-22T04:37:33;7.82;;;7.13;;
51216;SDS011;37283;49.760;8.648;2023-06-22T04:40:00;8.20;;;7.50;;
51216;SDS011;37283;49.760;8.648;2023-06-22T04:42:26;8.48;;;7.53;;
51216;SDS011;37283;49.760;8.648;2023-06-22T04:44:53;10.27;;;7.43;;
51216;SDS011;37283;49.760;8.648;2023-06-22T04:47:20;8.65;;;7.80;;
51216;SDS011;37283;49.760;8.648;2023-06-22T04:49:46;7.70;;;7.00;;
51216;SDS011;37283;49.760;8.648;2023-06-22T04:52:13;8.35;;;7.55;;
51216;SDS011;37283;49.760;8.648;2023-06-22T04:54:43;8.48;;;7.25;;
51216;SDS011;37283;49.760;8.648;2023-06-22T04:57:14;9.43;;;6.85;;
51216;SDS011;37283;49.760;8.648;2023-06-22T04:59:41;8.50;;;7.10;;
51216;SDS011;37283;49.760;8.648;2023-06-22T05:02:08;9.18;;;7.07;;
51216;SDS011;37283;49.760;8.648;2023-06-22T05:04:35;7.63;;;6.90;;
51216;SDS011;37283;49.760;8.648;2023-06-22T05:07:05;8.48;;;7.18;;
51216;SDS011;37283;49.760;8.648;2023-06-22T05:09:32;10.05;;;7.18;;
51216;SDS011;37283;49.760;8.648;2023-06-22T05:12:02;7.93;;;7.13;;
51216;SDS011;37283;49.760;8.648;2023-06-22T05:14:29;8.00;;;7.05;;
51216;SDS011;37283;49.760;8.648;2023-06-22T05:16:56;9.55;;;7.28;;
51216;SDS011;37283;49.760;8.648;2023-06-22T05:19:25;8.15;;;6.90;;
51216;SDS011;37283;49.760;8.648;2023-06-22T05:21:57;9.55;;;7.68;;
51216;SDS011;37283;49.760;8.648;2023-06-22T05:24:24;7.82;;;6.90;;
51216;SDS011;37283;49.760;8.648;2023-06-22T05:27:07;9.38;;;7.38;;
51216;SDS011;37283;49.760;8.648;2023-06-22T05:29:52;8.05;;;6.65;;
51216;SDS011;37283;49.760;8.648;2023-06-22T05:32:18;7.85;;;7.05;;
51216;SDS011;37283;49.760;8.648;2023-06-22T05:35:03;7.60;;;6.85;;
51216;SDS011;37283;49.760;8.648;2023-06-22T05:37:30;9.07;;;6.40;;
51216;SDS011;37283;49.760;8.648;2023-06-22T05:39:56;6.90;;;6.22;;
51216;SDS011;37283;49.760;8.648;2023-06-22T05:42:23;7.85;;;7.05;;
51216;SDS011;37283;49.760;8.648;2023-06-22T05:44:52;8.27;;;6.60;;
51216;SDS011;37283;49.760;8.648;2023-06-22T05:47:19;7.80;;;7.03;;
51216;SDS011;37283;49.760;8.648;2023-06-22T05:49:46;7.20;;;6.47;;
51216;SDS011;37283;49.760;8.648;2023-06-22T05:52:12;7.93;;;6.95;;
51216;SDS011;37283;49.760;8.648;2023-06-22T05:54:39;8.55;;;7.10;;
51216;SDS011;37283;49.760;8.648;2023-06-22T05:57:05;8.45;;;6.95;;
51216;SDS011;37283;49.760;8.648;2023-06-22T05:59:31;7.72;;;7.00;;
51216;SDS011;37283;49.760;8.648;2023-06-22T06:01:58;8.27;;;6.82;;
51216;SDS011;37283;49.760;8.648;2023-06-22T06:04:24;7.75;;;6.95;;
51216;SDS011;37283;49.760;8.648;2023-06-22T06:06:52;8.52;;;7.18;;
51216;SDS011;37283;49.760;8.648;2023-06-22T06:09:18;7.75;;;6.80;;
51216;SDS011;37283;49.760;8.648;2023-06-22T06:11:45;7.88;;;7.00;;
51216;SDS011;37283;49.760;8.648;2023-06-22T06:14:11;7.82;;;7.03;;
51216;SDS011;37283;49.760;8.648;2023-06-22T06:16:38;8.43;;;7.20;;
51216;SDS011;37283;49.760;8.648;2023-06-22T06:19:04;7.70;;;7.00;;
51216;SDS011;37283;49.760;8.648;2023-06-22T06:21:30;9.13;;;6.97;;
51216;SDS011;37283;49.760;8.648;2023-06-22T06:23:57;10.07;;;7.15;;
51216;SDS011;37283;49.760;8.648;2023-06-22T06:26:24;8.13;;;6.85;;
51216;SDS011;37283;49.760;8.648;2023-06-22T06:28:56;9.38;;;7.60;;
51216;SDS011;37283;49.760;8.648;2023-06-22T06:31:23;9.45;;;7.25;;
51216;SDS011;37283;49.760;8.648;2023-06-22T06:33:50;7.93;;;6.88;;
51216;SDS011;37283;49.760;8.648;2023-06-22T06:36:16;7.80;;;6.57;;
51216;SDS011;37283;49.760;8.648;2023-06-22T06:38:43;7.97;;;7.18;;
51216;SDS011;37283;49.760;8.648;2023-06-22T06:41:09;7.75;;;7.00;;
51216;SDS011;37283;49.760;8.648;2023-06-22T06:43:36;8.23;;;7.43;;
51216;SDS011;37283;49.760;8.648;2023-06-22T06:46:02;8.57;;;7.25;;
51216;SDS011;37283;49.760;8.648;2023-06-22T06:48:29;8.20;;;7.15;;
51216;SDS011;37283;49.760;8.648;2023-06-22T06:50:56;8.27;;;6.65;;
51216;SDS011;37283;49.760;8.648;2023-06-22T06:53:22;7.85;;;7.00;;
51216;SDS011;37283;49.760;8.648;2023-06-22T06:55:49;10.27;;;7.57;;
51216;SDS011;37283;49.760;8.648;2023-06-22T06:58:15;10.43;;;7.55;;
51216;SDS011;37283;49.760;8.648;2023-06-22T07:00:42;9.63;;;6.88;;
51216;SDS011;37283;49.760;8.648;2023-06-22T07:03:09;9.63;;;7.45;;
51216;SDS011;37283;49.760;8.648;2023-06-22T07:05:36;10.25;;;7.75;;
51216;SDS011;37283;49.760;8.648;2023-06-22T07:08:02;9.30;;;7.55;;
51216;SDS011;37283;49.760;8.648;2023-06-22T07:10:29;9.88;;;7.78;;
51216;SDS011;37283;49.760;8.648;2023-06-22T07:12:56;9.57;;;7.32;;
51216;SDS011;37283;49.760;8.648;2023-06-22T07:15:23;8.70;;;7.75;;
51216;SDS011;37283;49.760;8.648;2023-06-22T07:17:50;11.55;;;7.85;;
51216;SDS011;37283;49.760;8.648;2023-06-22T07:20:17;9.82;;;7.90;;
51216;SDS011;37283;49.760;8.648;2023-06-22T07:22:45;10.73;;;7.97;;
51216;SDS011;37283;49.760;8.648;2023-06-22T07:25:12;8.77;;;7.88;;
51216;SDS011;37283;49.760;8.648;2023-06-22T07:27:45;8.73;;;7.38;;
51216;SDS011;37283;49.760;8.648;2023-06-22T07:30:22;10.20;;;7.75;;
51216;SDS011;37283;49.760;8.648;2023-06-22T07:32:49;12.98;;;8.40;;
51216;SDS011;37283;49.760;8.648;2023-06-22T07:35:15;9.43;;;7.60;;
51216;SDS011;37283;49.760;8.648;2023-06-22T07:37:45;8.45;;;7.65;;
51216;SDS011;37283;49.760;8.648;2023-06-22T07:40:11;8.82;;;7.15;;
51216;SDS011;37283;49.760;8.648;2023-06-22T07:42:38;10.30;;;7.72;;
51216;SDS011;37283;49.760;8.648;2023-06-22T07:45:06;8.48;;;7.60;;
51216;SDS011;37283;49.760;8.648;2023-06-22T07:47:34;9.75;;;7.80;;
51216;SDS011;37283;49.760;8.648;2023-06-22T07:50:02;9.82;;;7.68;;
51216;SDS011;37283;49.760;8.648;2023-06-22T07:52:29;9.52;;;8.15;;
51216;SDS011;37283;49.760;8.648;2023-06-22T07:54:56;11.65;;;8.35;;
51216;SDS011;37283;49.760;8.648;2023-06-22T07:57:22;10.77;;;8.02;;
51216;SDS011;37283;49.760;8.648;2023-06-22T07:59:49;11.38;;;8.30;;
51216;SDS011;37283;49.760;8.648;2023-06-22T08:02:15;8.63;;;7.85;;
51216;SDS011;37283;49.760;8.648;2023-06-22T08:04:42;8.25;;;7.22;;
51216;SDS011;37283;49.760;8.648;2023-06-22T08:07:09;9.85;;;7.50;;
51216;SDS011;37283;49.760;8.648;2023-06-22T08:09:36;8.80;;;7.90;;
51216;SDS011;37283;49.760;8.648;2023-06-22T08:12:03;10.13;;;7.82;;
51216;SDS011;37283;49.760;8.648;2023-06-22T08:14:29;9.10;;;7.70;;
51216;SDS011;37283;49.760;8.648;2023-06-22T08:16:56;13.45;;;7.85;;
51216;SDS011;37283;49.760;8.648;2023-06-22T08:19:22;8.55;;;7.57;;
51216;SDS011;37283;49.760;8.648;2023-06-22T08:21:49;9.43;;;7.47;;
51216;SDS011;37283;49.760;8.648;2023-06-22T08:24:15;8.57;;;7.88;;
51216;SDS011;37283;49.760;8.648;2023-06-22T08:26:42;9.65;;;7.75;;
51216;SDS011;37283;49.760;8.648;2023-06-22T08:29:08;11.68;;;8.07;;
51216;SDS011;37283;49.760;8.648;2023-06-22T08:31:35;9.15;;;7.72;;
51216;SDS011;37283;49.760;8.648;2023-06-22T08:34:02;7.65;;;6.90;;
51216;SDS011;37283;49.760;8.648;2023-06-22T08:36:28;11.45;;;7.90;;
51216;SDS011;37283;49.760;8.648;2023-06-22T08:38:56;10.07;;;8.17;;
51216;SDS011;37283;49.760;8.648;2023-06-22T08:41:29;10.00;;;7.20;;
51216;SDS011;37283;49.760;8.648;2023-06-22T08:43:55;9.63;;;7.60;;
51216;SDS011;37283;49.760;8.648;2023-06-22T08:46:22;7.70;;;7.00;;
51216;SDS011;37283;49.760;8.648;2023-06-22T08:51:17;9.82;;;7.40;;
51216;SDS011;37283;49.760;8.648;2023-06-22T08:53:43;7.97;;;7.18;;
51216;SDS011;37283;49.760;8.648;2023-06-22T08:56:11;8.10;;;7.28;;
51216;SDS011;37283;49.760;8.648;2023-06-22T08:58:37;8.02;;;7.05;;
51216;SDS011;37283;49.760;8.648;2023-06-22T09:01:04;9.40;;;7.30;;
51216;SDS011;37283;49.760;8.648;2023-06-22T09:03:30;8.75;;;7.18;;
51216;SDS011;37283;49.760;8.648;2023-06-22T09:05:58;7.60;;;6.73;;
51216;SDS011;37283;49.760;8.648;2023-06-22T09:08:25;7.68;;;6.80;;
51216;SDS011;37283;49.760;8.648;2023-06-22T09:10:52;9.30;;;7.25;;
51216;SDS011;37283;49.760;8.648;2023-06-22T09:13:18;7.35;;;6.53;;
51216;SDS011;37283;49.760;8.648;2023-06-22T09:15:45;7.60;;;6.85;;
51216;SDS011;37283;49.760;8.648;2023-06-22T09:18:13;7.38;;;6.68;;
51216;SDS011;37283;49.760;8.648;2023-06-22T09:20:39;7.45;;;6.38;;
51216;SDS011;37283;49.760;8.648;2023-06-22T09:23:06;8.30;;;6.45;;
51216;SDS011;37283;49.760;8.648;2023-06-22T09:25:32;7.53;;;6.68;;
51216;SDS011;37283;49.760;8.648;2023-06-22T09:27:59;8.65;;;7.00;;
51216;SDS011;37283;49.760;8.648;2023-06-22T09:30:25;7.13;;;6.43;;
51216;SDS011;37283;49.760;8.648;2023-06-22T09:32:52;9.38;;;6.93;;
51216;SDS011;37283;49.760;8.648;2023-06-22T09:35:20;8.00;;;6.60;;
51216;SDS011;37283;49.760;8.648;2023-06-22T09:37:46;11.30;;;7.00;;
51216;SDS011;37283;49.760;8.648;2023-06-22T09:40:13;6.93;;;6.22;;
51216;SDS011;37283;49.760;8.648;2023-06-22T09:42:42;7.97;;;6.00;;
51216;SDS011;37283;49.760;8.648;2023-06-22T09:45:09;7.47;;;6.78;;
51216;SDS011;37283;49.760;8.648;2023-06-22T09:47:36;8.63;;;6.60;;
51216;SDS011;37283;49.760;8.648;2023-06-22T09:50:02;7.63;;;6.50;;
51216;SDS011;37283;49.760;8.648;2023-06-22T09:52:29;7.50;;;6.00;;
51216;SDS011;37283;49.760;8.648;2023-06-22T09:55:13;8.57;;;6.20;;
51216;SDS011;37283;49.760;8.648;2023-06-22T09:57:41;7.93;;;6.60;;
51216;SDS011;37283;49.760;8.648;2023-06-22T10:00:08;8.38;;;5.45;;
51216;SDS011;37283;49.760;8.648;2023-06-22T10:02:35;6.68;;;5.88;;
51216;SDS011;37283;49.760;8.648;2023-06-22T10:05:02;7.70;;;6.40;;
51216;SDS011;37283;49.760;8.648;2023-06-22T10:07:29;8.80;;;6.65;;
51216;SDS011;37283;49.760;8.648;2023-06-22T10:09:55;8.63;;;6.55;;
51216;SDS011;37283;49.760;8.648;2023-06-22T10:12:22;9.48;;;6.68;;
51216;SDS011;37283;49.760;8.648;2023-06-22T10:14:48;8.48;;;6.38;;
51216;SDS011;37283;49.760;8.648;2023-06-22T10:17:15;7.65;;;5.93;;
51216;SDS011;37283;49.760;8.648;2023-06-22T10:19:42;8.55;;;6.00;;
51216;SDS011;37283;49.760;8.648;2023-06-22T10:22:08;10.68;;;5.88;;
51216;SDS011;37283;49.760;8.648;2023-06-22T10:24:35;7.57;;;5.80;;
51216;SDS011;37283;49.760;8.648;2023-06-22T10:27:01;6.93;;;5.82;;
51216;SDS011;37283;49.760;8.648;2023-06-22T10:29:28;6.82;;;5.90;;
51216;SDS011;37283;49.760;8.648;2023-06-22T10:31:55;7.38;;;6.57;;
51216;SDS011;37283;49.760;8.648;2023-06-22T10:34:21;7.80;;;5.93;;
51216;SDS011;37283;49.760;8.648;2023-06-22T10:36:47;7.13;;;6.40;;
51216;SDS011;37283;49.760;8.648;2023-06-22T10:39:15;7.13;;;5.88;;
51216;SDS011;37283;49.760;8.648;2023-06-22T10:41:41;9.90;;;6.30;;
51216;SDS011;37283;49.760;8.648;2023-06-22T10:44:08;7.85;;;5.80;;
51216;SDS011;37283;49.760;8.648;2023-06-22T10:46:34;7.07;;;6.38;;
51216;SDS011;37283;49.760;8.648;2023-06-22T10:49:01;7.35;;;6.63;;
51216;SDS011;37283;49.760;8.648;2023-06-22T10:51:27;8.18;;;6.13;;
51216;SDS011;37283;49.760;8.648;2023-06-22T10:53:54;8.68;;;6.03;;
51216;SDS011;37283;49.760;8.648;2023-06-22T10:56:21;11.10;;;6.80;;
51216;SDS011;37283;49.760;8.648;2023-06-22T10:58:47;8.77;;;6.22;;
51216;SDS011;37283;49.760;8.648;2023-06-22T11:01:13;12.00;;;7.55;;
51216;SDS011;37283;49.760;8.648;2023-06-22T11:04:00;6.97;;;6.30;;
51216;SDS011;37283;49.760;8.648;2023-06-22T11:06:27;9.18;;;6.10;;
51216;SDS011;37283;49.760;8.648;2023-06-22T11:08:53;8.48;;;6.43;;
51216;SDS011;37283;49.760;8.648;2023-06-22T11:11:37;13.02;;;6.10;;
51216;SDS011;37283;49.760;8.648;2023-06-22T11:14:04;7.72;;;6.20;;
51216;SDS011;37283;49.760;8.648;2023-06-22T11:16:30;7.13;;;5.57;;
51216;SDS011;37283;49.760;8.648;2023-06-22T11:18:57;9.20;;;5.93;;
51216;SDS011;37283;49.760;8.648;2023-06-22T11:21:23;11.05;;;5.85;;
51216;SDS011;37283;49.760;8.648;2023-06-22T11:23:50;8.98;;;6.05;;
51216;SDS011;37283;49.760;8.648;2023-06-22T11:26:16;7.18;;;5.43;;
51216;SDS011;37283;49.760;8.648;2023-06-22T11:28:43;9.43;;;5.82;;
51216;SDS011;37283;49.760;8.648;2023-06-22T11:31:09;9.60;;;5.43;;
51216;SDS011;37283;49.760;8.648;2023-06-22T11:33:51;10.93;;;6.10;;
51216;SDS011;37283;49.760;8.648;2023-06-22T11:36:18;6.97;;;5.55;;
51216;SDS011;37283;49.760;8.648;2023-06-22T11:38:45;8.48;;;5.50;;
51216;SDS011;37283;49.760;8.648;2023-06-22T11:41:11;9.25;;;5.40;;
51216;SDS011;37283;49.760;8.648;2023-06-22T11:43:38;13.40;;;5.85;;
51216;SDS011;37283;49.760;8.648;2023-06-22T11:46:04;9.10;;;5.90;;
51216;SDS011;37283;49.760;8.648;2023-06-22T11:48:31;10.27;;;5.45;;
51216;SDS011;37283;49.760;8.648;2023-06-22T11:50:57;7.30;;;5.22;;
51216;SDS011;37283;49.760;8.648;2023-06-22T11:53:26;8.25;;;5.82;;
51216;SDS011;37283;49.760;8.648;2023-06-22T11:55:53;9.25;;;6.00;;
51216;SDS011;37283;49.760;8.648;2023-06-22T11:58:21;7.82;;;5.60;;
51216;SDS011;37283;49.760;8.648;2023-06-22T12:00:48;8.60;;;5.50;;
51216;SDS011;37283;49.760;8.648;2023-06-22T12:03:17;9.48;;;5.72;;
51216;SDS011;37283;49.760;8.648;2023-06-22T12:05:44;10.23;;;5.30;;
51216;SDS011;37283;49.760;8.648;2023-06-22T12:08:11;10.23;;;5.35;;
51216;SDS011;37283;49.760;8.648;2023-06-22T12:10:39;9.02;;;5.35;;
51216;SDS011;37283;49.760;8.648;2023-06-22T12:13:06;7.72;;;4.90;;
51216;SDS011;37283;49.760;8.648;2023-06-22T12:15:32;11.43;;;5.40;;
51216;SDS011;37283;49.760;8.648;2023-06-22T12:17:59;7.90;;;5.05;;
51216;SDS011;37283;49.760;8.648;2023-06-22T12:20:27;8.82;;;5.13;;
51216;SDS011;37283;49.760;8.648;2023-06-22T12:22:54;9.75;;;4.93;;
51216;SDS011;37283;49.760;8.648;2023-06-22T12:25:22;8.30;;;5.10;;
51216;SDS011;37283;49.760;8.648;2023-06-22T12:27:49;11.65;;;5.15;;
51216;SDS011;37283;49.760;8.648;2023-06-22T12:30:15;11.55;;;5.07;;
51216;SDS011;37283;49.760;8.648;2023-06-22T12:32:42;10.55;;;4.75;;
51216;SDS011;37283;49.760;8.648;2023-06-22T12:35:09;8.38;;;4.63;;
51216;SDS011;37283;49.760;8.648;2023-06-22T12:37:40;11.27;;;5.30;;
51216;SDS011;37283;49.760;8.648;2023-06-22T12:40:07;9.80;;;4.80;;
51216;SDS011;37283;49.760;8.648;2023-06-22T12:42:35;9.13;;;5.07;;
51216;SDS011;37283;49.760;8.648;2023-06-22T12:45:01;10.07;;;5.13;;
51216;SDS011;37283;49.760;8.648;2023-06-22T12:47:28;9.63;;;4.85;;
51216;SDS011;37283;49.760;8.648;2023-06-22T12:49:54;9.95;;;4.53;;
51216;SDS011;37283;49.760;8.648;2023-06-22T12:52:21;9.68;;;4.72;;
51216;SDS011;37283;49.760;8.648;2023-06-22T12:54:48;7.57;;;4.80;;
51216;SDS011;37283;49.760;8.648;2023-06-22T12:57:21;7.70;;;4.43;;
51216;SDS011;37283;49.760;8.648;2023-06-22T12:59:47;8.65;;;4.18;;
51216;SDS011;37283;49.760;8.648;2023-06-22T13:02:14;8.30;;;4.90;;
51216;SDS011;37283;49.760;8.648;2023-06-22T13:04:41;9.02;;;4.90;;
51216;SDS011;37283;49.760;8.648;2023-06-22T13:07:08;10.35;;;4.90;;
51216;SDS011;37283;49.760;8.648;2023-06-22T13:09:47;10.65;;;4.85;;
51216;SDS011;37283;49.760;8.648;2023-06-22T13:12:19;10.13;;;4.93;;
51216;SDS011;37283;49.760;8.648;2023-06-22T13:14:46;9.60;;;5.00;;
51216;SDS011;37283;49.760;8.648;2023-06-22T13:17:13;10.88;;;4.43;;
51216;SDS011;37283;49.760;8.648;2023-06-22T13:19:40;8.98;;;4.63;;
51216;SDS011;37283;49.760;8.648;2023-06-22T13:22:26;7.32;;;4.57;;
51216;SDS011;37283;49.760;8.648;2023-06-22T13:24:55;12.15;;;4.55;;
51216;SDS011;37283;49.760;8.648;2023-06-22T13:27:22;9.93;;;4.40;;
51216;SDS011;37283;49.760;8.648;2023-06-22T13:29:48;12.07;;;4.68;;
51216;SDS011;37283;49.760;8.648;2023-06-22T13:32:32;10.45;;;5.15;;
51216;SDS011;37283;49.760;8.648;2023-06-22T13:35:16;10.52;;;4.65;;
51216;SDS011;37283;49.760;8.648;2023-06-22T13:37:43;9.40;;;4.75;;
51216;SDS011;37283;49.760;8.648;2023-06-22T13:40:27;7.97;;;3.97;;
51216;SDS011;37283;49.760;8.648;2023-06-22T13:42:53;9.80;;;4.95;;
51216;SDS011;37283;49.760;8.648;2023-06-22T13:45:37;11.50;;;4.65;;
51216;SDS011;37283;49.760;8.648;2023-06-22T13:48:04;9.70;;;4.28;;
51216;SDS011;37283;49.760;8.648;2023-06-22T13:50:48;9.63;;;4.68;;
51216;SDS011;37283;49.760;8.648;2023-06-22T13:53:15;10.07;;;4.63;;
51216;SDS011;37283;49.760;8.648;2023-06-22T13:55:41;11.80;;;4.57;;
51216;SDS011;37283;49.760;8.648;2023-06-22T13:58:08;9.77;;;4.55;;
51216;SDS011;37283;49.760;8.648;2023-06-22T14:00:34;10.65;;;4.55;;
51216;SDS011;37283;49.760;8.648;2023-06-22T14:03:01;8.02;;;4.20;;
51216;SDS011;37283;49.760;8.648;2023-06-22T14:05:27;10.10;;;4.28;;
51216;SDS011;37283;49.760;8.648;2023-06-22T14:07:54;10.38;;;4.20;;
51216;SDS011;37283;49.760;8.648;2023-06-22T14:10:20;14.77;;;4.70;;
51216;SDS011;37283;49.760;8.648;2023-06-22T14:12:47;15.35;;;4.57;;
51216;SDS011;37283;49.760;8.648;2023-06-22T14:15:14;13.73;;;4.30;;
51216;SDS011;37283;49.760;8.648;2023-06-22T14:17:40;8.40;;;4.30;;
51216;SDS011;37283;49.760;8.648;2023-06-22T14:20:07;10.77;;;4.15;;
51216;SDS011;37283;49.760;8.648;2023-06-22T14:22:34;10.40;;;4.17;;
51216;SDS011;37283;49.760;8.648;2023-06-22T14:25:01;13.57;;;4.50;;
51216;SDS011;37283;49.760;8.648;2023-06-22T14:27:28;10.77;;;4.20;;
51216;SDS011;37283;49.760;8.648;2023-06-22T14:29:54;9.50;;;4.43;;
51216;SDS011;37283;49.760;8.648;2023-06-22T14:32:21;10.23;;;4.97;;
51216;SDS011;37283;49.760;8.648;2023-06-22T14:34:47;13.82;;;4.40;;
51216;SDS011;37283;49.760;8.648;2023-06-22T14:37:16;11.07;;;4.50;;
51216;SDS011;37283;49.760;8.648;2023-06-22T14:39:42;10.15;;;4.40;;
51216;SDS011;37283;49.760;8.648;2023-06-22T14:42:09;9.65;;;3.85;;
51216;SDS011;37283;49.760;8.648;2023-06-22T14:44:35;9.38;;;4.10;;
51216;SDS011;37283;49.760;8.648;2023-06-22T14:47:02;7.68;;;4.15;;
51216;SDS011;37283;49.760;8.648;2023-06-22T14:49:29;15.00;;;4.25;;
51216;SDS011;37283;49.760;8.648;2023-06-22T14:51:55;12.68;;;4.65;;
51216;SDS011;37283;49.760;8.648;2023-06-22T14:54:22;9.73;;;4.10;;
51216;SDS011;37283;49.760;8.648;2023-06-22T14:56:48;10.98;;;4.30;;
51216;SDS011;37283;49.760;8.648;2023-06-22T14:59:15;12.02;;;4.18;;
51216;SDS011;37283;49.760;8.648;2023-06-22T15:01:41;8.55;;;3.85;;